createdAt,value
2019-02-27T00:02:12.369Z,12.68
2019-02-27T00:04:40.349Z,12.66
2019-02-27T00:07:08.377Z,12.65
2019-02-27T00:09:36.479Z,12.63
2019-02-27T00:12:04.473Z,12.62
2019-02-27T00:14:33.040Z,12.61
2019-02-27T00:17:01.127Z,12.59
2019-02-27T00:19:31.477Z,12.57
2019-02-27T00:21:58.966Z,12.57
2019-02-27T00:24:30.034Z,12.56
2019-02-27T00:26:57.061Z,12.54
2019-02-27T00:29:28.832Z,12.53
2019-02-27T00:31:54.881Z,12.51
2019-02-27T00:34:23.056Z,12.50
2019-02-27T00:36:51.190Z,12.49
2019-02-27T00:39:19.230Z,12.47
2019-02-27T00:41:47.469Z,12.46
2019-02-27T00:44:15.554Z,12.45
2019-02-27T00:46:46.101Z,12.42
2019-02-27T00:49:13.289Z,12.42
2019-02-27T00:51:44.652Z,12.39
2019-02-27T00:54:11.106Z,12.38
2019-02-27T00:56:39.235Z,12.38
2019-02-27T00:59:07.213Z,12.36
2019-02-27T01:01:35.301Z,12.34
2019-02-27T01:04:03.436Z,12.32
2019-02-27T01:06:31.584Z,12.31
2019-02-27T01:08:59.771Z,12.29
2019-02-27T01:11:27.765Z,12.28
2019-02-27T01:13:55.909Z,12.26
2019-02-27T01:16:24.097Z,12.24
2019-02-27T01:18:52.160Z,12.23
2019-02-27T01:21:20.336Z,12.21
2019-02-27T01:23:48.347Z,12.20
2019-02-27T01:26:16.395Z,12.18
2019-02-27T01:28:45.485Z,12.17
2019-02-27T01:31:13.579Z,12.16
2019-02-27T01:33:41.806Z,12.14
2019-02-27T01:36:09.968Z,12.11
2019-02-27T01:38:38.542Z,12.10
2019-02-27T01:41:06.807Z,12.10
2019-02-27T01:43:39.550Z,12.09
2019-02-27T01:46:04.532Z,12.07
2019-02-27T01:48:32.496Z,12.05
2019-02-27T01:51:00.594Z,12.02
2019-02-27T01:53:28.575Z,12.01
2019-02-27T01:55:56.977Z,11.99
2019-02-27T01:58:25.078Z,11.99
2019-02-27T02:00:56.113Z,11.98
2019-02-27T02:03:23.030Z,11.96
2019-02-27T02:05:51.141Z,11.96
2019-02-27T02:08:19.110Z,11.95
2019-02-27T02:10:47.145Z,11.93
2019-02-27T02:13:40.503Z,11.92
2019-02-27T02:16:26.765Z,11.90
2019-02-27T02:19:14.033Z,11.88
2019-02-27T02:21:56.682Z,11.86
2019-02-27T02:24:32.632Z,11.84
2019-02-27T02:27:32.194Z,11.82
2019-02-27T02:30:17.927Z,11.81
2019-02-27T02:33:04.184Z,11.80
2019-02-27T02:35:49.536Z,11.79
2019-02-27T02:38:23.517Z,11.77
2019-02-27T02:41:08.465Z,11.75
2019-02-27T02:43:53.935Z,11.74
2019-02-27T02:46:44.872Z,11.72
2019-02-27T02:49:30.060Z,11.71
2019-02-27T02:52:16.172Z,11.71
2019-02-27T02:55:03.436Z,11.68
2019-02-27T02:57:38.206Z,11.66
2019-02-27T03:00:10.399Z,11.65
2019-02-27T03:02:41.145Z,11.63
2019-02-27T03:05:23.348Z,11.63
2019-02-27T03:08:21.345Z,11.62
2019-02-27T03:10:53.616Z,11.60
2019-02-27T03:13:53.041Z,11.59
2019-02-27T03:16:41.388Z,11.58
2019-02-27T03:19:22.118Z,11.56
2019-02-27T03:22:15.578Z,11.56
2019-02-27T03:24:53.066Z,11.53
2019-02-27T03:27:34.240Z,11.52
2019-02-27T03:30:33.943Z,11.51
2019-02-27T03:33:03.487Z,11.49
2019-02-27T03:35:59.988Z,11.47
2019-02-27T03:38:34.501Z,11.47
2019-02-27T03:41:22.793Z,11.45
2019-02-27T03:43:59.254Z,11.44
2019-02-27T03:46:48.155Z,11.44
2019-02-27T03:49:39.705Z,11.42
2019-02-27T03:52:28.239Z,11.41
2019-02-27T03:55:04.681Z,11.39
2019-02-27T03:57:54.871Z,11.37
2019-02-27T04:00:44.272Z,11.36
2019-02-27T04:03:24.676Z,11.35
2019-02-27T04:06:10.522Z,11.32
2019-02-27T04:09:00.829Z,11.31
2019-02-27T04:11:29.370Z,11.29
2019-02-27T04:14:03.049Z,11.28
2019-02-27T04:16:29.291Z,11.27
2019-02-27T04:19:03.074Z,11.26
2019-02-27T04:21:28.142Z,11.24
2019-02-27T04:23:56.256Z,11.23
2019-02-27T04:26:24.341Z,11.22
2019-02-27T04:28:52.558Z,11.20
2019-02-27T04:31:20.618Z,11.19
2019-02-27T04:33:48.674Z,11.18
2019-02-27T04:36:16.621Z,11.17
2019-02-27T04:38:44.974Z,11.15
2019-02-27T04:41:17.776Z,11.17
2019-02-27T04:43:42.996Z,11.16
2019-02-27T04:46:11.338Z,11.15
2019-02-27T04:48:39.349Z,11.17
2019-02-27T04:51:07.573Z,11.15
2019-02-27T04:53:35.601Z,11.16
2019-02-27T04:56:03.697Z,11.15
2019-02-27T04:58:31.693Z,11.14
2019-02-27T05:00:59.827Z,11.13
2019-02-27T05:03:28.493Z,11.13
2019-02-27T05:05:56.682Z,11.13
2019-02-27T05:08:26.911Z,11.13
2019-02-27T05:10:54.418Z,11.12
2019-02-27T05:13:22.506Z,11.14
2019-02-27T05:15:50.827Z,11.14
2019-02-27T05:18:18.772Z,11.14
2019-02-27T05:20:46.903Z,11.15
2019-02-27T05:23:15.197Z,11.15
2019-02-27T05:25:43.251Z,11.15
2019-02-27T05:28:11.364Z,11.16
2019-02-27T05:30:39.635Z,11.17
2019-02-27T05:33:07.957Z,11.16
2019-02-27T05:35:36.010Z,11.17
2019-02-27T05:38:05.195Z,11.19
2019-02-27T05:40:33.434Z,11.19
2019-02-27T05:43:01.816Z,11.18
2019-02-27T05:45:31.419Z,11.16
2019-02-27T05:47:59.482Z,11.18
2019-02-27T05:50:27.830Z,11.17
2019-02-27T05:52:55.889Z,11.17
2019-02-27T05:55:23.938Z,11.18
2019-02-27T05:57:51.974Z,11.19
2019-02-27T06:03:01.033Z,11.19
2019-02-27T06:05:30.847Z,11.18
2019-02-27T06:08:02.037Z,11.20
2019-02-27T06:10:29.749Z,11.24
2019-02-27T06:12:58.467Z,11.27
2019-02-27T06:15:28.580Z,11.34
2019-02-27T06:17:56.112Z,11.40
2019-02-27T06:20:24.162Z,11.50
2019-02-27T06:22:52.121Z,11.60
2019-02-27T06:25:23.322Z,11.70
2019-02-27T06:27:49.905Z,11.80
2019-02-27T06:30:18.243Z,11.92
2019-02-27T06:32:46.178Z,12.00
2019-02-27T06:35:14.177Z,12.06
2019-02-27T06:37:42.287Z,12.15
2019-02-27T06:40:11.197Z,12.25
2019-02-27T06:42:39.623Z,12.32
2019-02-27T06:45:10.239Z,12.36
2019-02-27T06:47:38.337Z,12.43
2019-02-27T06:50:07.301Z,12.48
2019-02-27T06:52:35.567Z,12.53
2019-02-27T06:55:03.698Z,12.55
2019-02-27T06:57:32.074Z,12.56
2019-02-27T07:00:02.941Z,12.59
2019-02-27T07:02:30.050Z,12.59
2019-02-27T07:04:58.066Z,12.62
2019-02-27T07:07:28.738Z,12.64
2019-02-27T07:09:56.289Z,12.69
2019-02-27T07:12:24.357Z,12.71
2019-02-27T07:14:52.390Z,12.76
2019-02-27T07:17:20.433Z,12.80
2019-02-27T07:19:49.730Z,12.83
2019-02-27T07:22:18.346Z,12.85
2019-02-27T07:24:46.356Z,12.87
2019-02-27T07:27:14.393Z,12.87
2019-02-27T07:29:43.010Z,12.90
2019-02-27T07:32:11.203Z,12.91
2019-02-27T07:34:39.278Z,12.93
2019-02-27T07:37:07.616Z,12.95
2019-02-27T07:39:35.935Z,13.00
2019-02-27T07:42:04.149Z,13.04
2019-02-27T07:44:34.886Z,13.09
2019-02-27T07:47:01.894Z,13.13
2019-02-27T07:49:30.941Z,13.17
2019-02-27T07:51:59.591Z,13.19
2019-02-27T07:54:29.134Z,13.21
2019-02-27T07:56:57.349Z,13.23
2019-02-27T07:59:25.525Z,13.25
2019-02-27T08:01:53.564Z,13.26
2019-02-27T08:04:22.994Z,13.28
2019-02-27T08:06:51.305Z,13.34
2019-02-27T08:09:19.687Z,13.41
2019-02-27T08:11:48.030Z,13.50
2019-02-27T08:14:16.130Z,13.56
2019-02-27T08:16:44.543Z,13.62
2019-02-27T08:19:12.788Z,13.69
2019-02-27T08:21:41.106Z,13.78
2019-02-27T08:24:09.714Z,13.86
2019-02-27T08:26:38.029Z,14.06
2019-02-27T08:29:06.103Z,14.22
2019-02-27T08:31:34.219Z,14.33
2019-02-27T08:34:02.661Z,14.41
2019-02-27T08:36:30.802Z,14.46
2019-02-27T08:38:58.851Z,14.56
2019-02-27T08:41:29.195Z,14.58
2019-02-27T08:43:56.557Z,14.61
2019-02-27T08:46:24.865Z,14.63
2019-02-27T08:48:52.947Z,14.63
2019-02-27T08:51:21.270Z,14.64
2019-02-27T08:53:49.719Z,14.68
2019-02-27T08:56:17.838Z,14.70
2019-02-27T08:58:45.927Z,14.74
2019-02-27T09:01:13.979Z,14.77
2019-02-27T09:03:42.141Z,14.80
2019-02-27T09:06:10.390Z,14.84
2019-02-27T09:08:43.311Z,14.86
2019-02-27T09:11:08.377Z,14.92
2019-02-27T09:13:36.642Z,14.97
2019-02-27T09:16:04.966Z,15.00
2019-02-27T09:18:33.382Z,15.03
2019-02-27T09:21:02.928Z,15.06
2019-02-27T09:23:31.065Z,15.13
2019-02-27T09:26:02.521Z,15.10
2019-02-27T09:28:29.049Z,15.08
2019-02-27T09:30:57.325Z,15.07
2019-02-27T09:33:25.416Z,15.10
2019-02-27T09:35:53.560Z,15.13
2019-02-27T09:38:24.090Z,15.13
2019-02-27T09:40:51.568Z,15.22
2019-02-27T09:43:19.985Z,15.22
2019-02-27T09:45:48.062Z,15.21
2019-02-27T09:48:16.074Z,15.22
2019-02-27T09:50:47.749Z,15.23
2019-02-27T09:53:14.811Z,15.26
2019-02-27T09:55:43.128Z,15.31
2019-02-27T09:58:11.672Z,15.38
2019-02-27T10:00:40.939Z,15.38
2019-02-27T10:03:08.953Z,15.41
2019-02-27T10:05:37.557Z,15.44
2019-02-27T10:08:07.503Z,15.49
2019-02-27T10:10:35.634Z,15.54
2019-02-27T10:13:04.124Z,15.60
2019-02-27T10:15:34.332Z,15.64
2019-02-27T10:18:02.294Z,15.68
2019-02-27T10:20:30.898Z,15.73
2019-02-27T10:22:59.254Z,15.72
2019-02-27T10:25:27.245Z,15.72
2019-02-27T10:27:55.328Z,15.74
2019-02-27T10:30:23.616Z,15.77
2019-02-27T10:32:51.815Z,15.76
2019-02-27T10:35:20.173Z,15.76
2019-02-27T10:37:50.745Z,15.78
2019-02-27T10:40:22.299Z,15.82
2019-02-27T10:42:51.354Z,15.92
2019-02-27T10:45:19.591Z,16.11
2019-02-27T10:47:47.782Z,16.34
2019-02-27T10:50:16.240Z,16.57
2019-02-27T10:52:44.409Z,16.79
2019-02-27T10:55:14.179Z,16.99
2019-02-27T10:57:42.793Z,17.08
2019-02-27T11:00:24.828Z,17.22
2019-02-27T11:02:52.513Z,17.40
2019-02-27T11:05:20.959Z,17.46
2019-02-27T11:07:50.177Z,17.45
2019-02-27T11:10:18.766Z,17.44
2019-02-27T11:12:46.929Z,17.41
2019-02-27T11:15:15.916Z,17.32
2019-02-27T11:17:44.058Z,17.25
2019-02-27T11:20:12.528Z,17.15
2019-02-27T11:22:40.548Z,17.04
2019-02-27T11:25:10.006Z,16.93
2019-02-27T11:27:38.949Z,16.84
2019-02-27T11:30:09.685Z,16.76
2019-02-27T11:32:37.884Z,16.71
2019-02-27T11:35:06.122Z,16.67
2019-02-27T11:37:34.151Z,16.63
2019-02-27T11:40:02.223Z,16.60
2019-02-27T11:42:32.037Z,16.60
2019-02-27T11:45:00.549Z,16.59
2019-02-27T11:47:28.731Z,16.57
2019-02-27T11:49:56.742Z,16.54
2019-02-27T11:52:27.805Z,16.54
2019-02-27T11:54:54.715Z,16.54
2019-02-27T11:57:23.740Z,16.57
2019-02-27T11:59:51.864Z,16.52
2019-02-27T12:02:28.606Z,16.56
2019-02-27T12:04:53.496Z,16.57
2019-02-27T12:07:19.911Z,16.66
2019-02-27T12:09:48.247Z,16.92
2019-02-27T12:12:16.291Z,17.13
2019-02-27T12:14:44.590Z,17.29
2019-02-27T12:17:12.858Z,17.38
2019-02-27T12:19:44.398Z,17.44
2019-02-27T12:22:10.998Z,17.46
2019-02-27T12:24:39.550Z,17.50
2019-02-27T12:27:10.387Z,17.49
2019-02-27T12:29:37.901Z,17.47
2019-02-27T12:32:06.246Z,17.43
2019-02-27T12:34:37.042Z,17.37
2019-02-27T12:37:03.970Z,17.36
2019-02-27T12:39:31.983Z,17.33
2019-02-27T12:42:00.066Z,17.31
2019-02-27T12:44:28.134Z,17.29
2019-02-27T12:46:56.460Z,17.28
2019-02-27T12:49:25.062Z,17.23
2019-02-27T12:51:53.119Z,17.19
2019-02-27T12:54:21.118Z,17.14
2019-02-27T12:56:49.129Z,17.13
2019-02-27T12:59:17.402Z,17.10
2019-02-27T13:01:45.654Z,17.09
2019-02-27T13:04:16.547Z,17.09
2019-02-27T13:06:43.852Z,17.10
2019-02-27T13:09:12.123Z,17.09
2019-02-27T13:11:41.953Z,17.07
2019-02-27T13:14:10.068Z,17.03
2019-02-27T13:16:38.140Z,17.03
2019-02-27T13:19:07.063Z,17.05
2019-02-27T13:21:35.483Z,17.06
2019-02-27T13:24:03.722Z,17.08
2019-02-27T13:26:34.635Z,17.05
2019-02-27T13:29:02.253Z,17.08
2019-02-27T13:31:30.302Z,17.07
2019-02-27T13:33:58.306Z,17.06
2019-02-27T13:36:26.376Z,17.03
2019-02-27T13:38:54.629Z,17.04
2019-02-27T13:41:23.827Z,17.02
2019-02-27T13:43:52.360Z,17.00
2019-02-27T13:49:08.081Z,17.03
2019-02-27T13:51:37.205Z,17.05
2019-02-27T13:54:06.275Z,17.06
2019-02-27T13:56:34.350Z,17.07
2019-02-27T13:59:02.441Z,17.13
2019-02-27T14:01:30.426Z,17.18
2019-02-27T14:03:58.530Z,17.20
2019-02-27T14:06:26.522Z,17.20
2019-02-27T14:08:54.839Z,17.22
2019-02-27T14:11:24.875Z,17.26
2019-02-27T14:13:52.461Z,17.26
2019-02-27T14:16:20.515Z,17.30
2019-02-27T14:18:50.097Z,17.31
2019-02-27T14:21:18.402Z,17.35
2019-02-27T14:23:47.106Z,17.36
2019-02-27T14:26:16.214Z,17.36
2019-02-27T14:28:44.327Z,17.40
2019-02-27T14:31:13.205Z,17.45
2019-02-27T14:33:41.336Z,17.45
2019-02-27T14:36:09.510Z,17.49
2019-02-27T14:38:37.594Z,17.54
2019-02-27T14:41:05.578Z,17.56
2019-02-27T14:43:33.669Z,17.57
2019-02-27T14:46:01.646Z,17.63
2019-02-27T14:48:30.420Z,17.66
2019-02-27T14:50:58.657Z,17.72
2019-02-27T14:53:26.945Z,17.74
2019-02-27T14:55:55.357Z,17.78
2019-02-27T14:58:24.369Z,17.82
2019-02-27T15:00:53.087Z,17.86
2019-02-27T15:03:21.110Z,17.87
2019-02-27T15:05:49.085Z,17.91
2019-02-27T15:08:17.254Z,17.93
2019-02-27T15:10:45.242Z,17.99
2019-02-27T15:13:13.478Z,18.01
2019-02-27T15:15:43.705Z,18.05
2019-02-27T15:18:11.752Z,18.07
2019-02-27T15:20:41.003Z,18.10
2019-02-27T15:23:09.273Z,18.16
2019-02-27T15:25:41.921Z,18.24
2019-02-27T15:28:07.360Z,18.24
2019-02-27T15:30:35.638Z,18.32
2019-02-27T15:33:05.062Z,18.47
2019-02-27T15:35:33.808Z,18.59
2019-02-27T15:38:01.874Z,18.68
2019-02-27T15:40:30.588Z,18.78
2019-02-27T15:42:58.692Z,18.89
2019-02-27T15:45:26.910Z,18.95
2019-02-27T15:47:54.962Z,19.05
2019-02-27T15:50:23.643Z,19.06
2019-02-27T15:52:51.942Z,19.11
2019-02-27T15:55:20.023Z,19.17
2019-02-27T15:57:52.046Z,19.21
2019-02-27T16:00:18.882Z,19.29
2019-02-27T16:02:46.999Z,19.36
2019-02-27T16:05:15.069Z,19.40
2019-02-27T16:07:48.472Z,19.41
2019-02-27T16:10:14.069Z,19.41
2019-02-27T16:12:42.166Z,19.33
2019-02-27T16:15:10.545Z,19.21
2019-02-27T16:17:38.728Z,19.08
2019-02-27T16:20:08.216Z,18.96
2019-02-27T16:22:36.205Z,18.81
2019-02-27T16:25:04.587Z,18.69
2019-02-27T16:27:35.383Z,18.60
2019-02-27T16:30:03.854Z,18.57
2019-02-27T16:32:32.060Z,18.50
2019-02-27T16:35:00.417Z,18.43
2019-02-27T16:37:28.626Z,18.37
2019-02-27T16:39:56.943Z,18.33
2019-02-27T16:42:25.162Z,18.26
2019-02-27T16:44:54.453Z,18.16
2019-02-27T16:47:23.729Z,18.09
2019-02-27T16:49:54.160Z,18.00
2019-02-27T16:52:22.341Z,17.93
2019-02-27T16:54:50.761Z,17.87
2019-02-27T16:57:24.162Z,17.82
2019-02-27T16:59:49.087Z,17.75
2019-02-27T17:02:17.638Z,17.69
2019-02-27T17:04:45.826Z,17.62
2019-02-27T17:07:13.902Z,17.57
2019-02-27T17:09:43.868Z,17.53
2019-02-27T17:12:11.843Z,17.48
2019-02-27T17:14:39.939Z,17.43
2019-02-27T17:17:08.166Z,17.40
2019-02-27T17:19:36.529Z,17.35
2019-02-27T17:22:05.755Z,17.30
2019-02-27T17:24:33.974Z,17.25
2019-02-27T17:27:02.359Z,17.20
2019-02-27T17:29:31.128Z,17.16
2019-02-27T17:31:59.322Z,17.12
2019-02-27T17:34:27.467Z,17.09
2019-02-27T17:36:55.538Z,17.04
2019-02-27T17:39:27.668Z,17.02
2019-02-27T17:41:53.397Z,16.99
2019-02-27T17:44:21.534Z,16.95
2019-02-27T17:46:54.386Z,16.92
2019-02-27T17:49:22.257Z,16.87
2019-02-27T17:51:49.647Z,16.84
2019-02-27T17:54:18.038Z,16.79
2019-02-27T17:56:47.150Z,16.77
2019-02-27T17:59:16.165Z,16.73
2019-02-27T18:01:44.274Z,16.71
2019-02-27T18:04:14.559Z,16.70
2019-02-27T18:06:42.374Z,16.67
2019-02-27T18:09:10.386Z,16.64
2019-02-27T18:11:38.606Z,16.62
2019-02-27T18:14:09.875Z,16.59
2019-02-27T18:16:36.633Z,16.56
2019-02-27T18:19:04.790Z,16.53
2019-02-27T18:21:33.842Z,16.51
2019-02-27T18:24:03.594Z,16.47
2019-02-27T18:26:31.734Z,16.45
2019-02-27T18:28:59.721Z,16.42
2019-02-27T18:31:27.902Z,16.40
2019-02-27T18:33:56.096Z,16.36
2019-02-27T18:36:24.319Z,16.34
2019-02-27T18:38:52.771Z,16.30
2019-02-27T18:41:20.856Z,16.27
2019-02-27T18:43:49.026Z,16.26
2019-02-27T18:46:17.338Z,16.24
2019-02-27T18:48:45.396Z,16.22
2019-02-27T18:51:13.655Z,16.20
2019-02-27T18:53:47.395Z,16.19
2019-02-27T18:56:11.935Z,16.17
2019-02-27T18:58:39.947Z,16.13
2019-02-27T19:01:09.982Z,16.12
2019-02-27T19:03:38.026Z,16.08
2019-02-27T19:06:06.215Z,16.06
2019-02-27T19:08:34.591Z,16.04
2019-02-27T19:11:03.782Z,16.02
2019-02-27T19:13:32.439Z,15.99
2019-02-27T19:16:00.739Z,15.98
2019-02-27T19:18:28.733Z,15.96
2019-02-27T19:20:59.240Z,15.94
2019-02-27T19:23:26.379Z,15.90
2019-02-27T19:25:54.512Z,15.87
2019-02-27T19:28:24.947Z,15.85
2019-02-27T19:30:52.438Z,15.85
2019-02-27T19:33:20.964Z,15.81
2019-02-27T19:35:49.034Z,15.78
2019-02-27T19:38:17.061Z,15.76
2019-02-27T19:40:45.053Z,15.75
2019-02-27T19:43:13.408Z,15.74
2019-02-27T19:45:42.318Z,15.71
2019-02-27T19:48:10.854Z,15.69
2019-02-27T19:50:45.201Z,15.67
2019-02-27T19:53:09.213Z,15.65
2019-02-27T19:55:37.261Z,15.62
2019-02-27T19:58:05.537Z,15.59
2019-02-27T20:00:35.416Z,15.58
2019-02-27T20:03:04.183Z,15.55
2019-02-27T20:05:32.306Z,15.55
2019-02-27T20:08:02.384Z,15.50
2019-02-27T20:10:33.006Z,15.50
2019-02-27T20:13:00.130Z,15.47
2019-02-27T20:15:28.443Z,15.45
2019-02-27T20:17:56.774Z,15.43
2019-02-27T20:20:25.069Z,15.41
2019-02-27T20:22:54.712Z,15.39
2019-02-27T20:25:23.474Z,15.37
2019-02-27T20:27:51.767Z,15.35
2019-02-27T20:30:20.279Z,15.33
2019-02-27T20:32:48.363Z,15.32
2019-02-27T20:35:17.317Z,15.29
2019-02-27T20:37:46.407Z,15.28
2019-02-27T20:40:14.914Z,15.27
2019-02-27T20:42:43.779Z,15.23
2019-02-27T20:45:13.630Z,15.21
2019-02-27T20:47:43.341Z,15.20
2019-02-27T20:50:20.930Z,15.18
2019-02-27T20:52:46.450Z,15.16
2019-02-27T20:55:15.547Z,15.13
2019-02-27T20:57:43.803Z,15.12
2019-02-27T21:00:12.946Z,15.09
2019-02-27T21:02:40.918Z,15.07
2019-02-27T21:05:10.229Z,15.06
2019-02-27T21:07:38.459Z,15.04
2019-02-27T21:10:08.277Z,15.03
2019-02-27T21:12:37.311Z,15.00
2019-02-27T21:15:06.821Z,14.99
2019-02-27T21:17:34.969Z,14.97
2019-02-27T21:20:03.486Z,14.96
2019-02-27T21:22:31.597Z,14.94
2019-02-27T21:24:59.880Z,14.92
2019-02-27T21:27:28.521Z,14.89
2019-02-27T21:29:57.879Z,14.87
2019-02-27T21:32:26.039Z,14.85
2019-02-27T21:34:55.262Z,14.84
2019-02-27T21:37:24.289Z,14.80
2019-02-27T21:39:52.572Z,14.80
2019-02-27T21:42:20.703Z,14.79
2019-02-27T21:44:48.721Z,14.78
2019-02-27T21:47:18.388Z,14.76
2019-02-27T21:49:46.734Z,14.74
2019-02-27T21:52:14.718Z,14.73
2019-02-27T21:54:42.787Z,14.72
2019-02-27T21:57:10.846Z,14.71
2019-02-27T21:59:39.862Z,14.68
2019-02-27T22:02:08.818Z,14.67
2019-02-27T22:04:36.987Z,14.67
2019-02-27T22:07:05.130Z,14.64
2019-02-27T22:09:33.299Z,14.64
2019-02-27T22:12:02.098Z,14.64
2019-02-27T22:14:30.773Z,14.59
2019-02-27T22:17:01.601Z,14.59
2019-02-27T22:19:28.949Z,14.58
2019-02-27T22:21:57.248Z,14.55
2019-02-27T22:24:25.606Z,14.54
2019-02-27T22:26:53.817Z,14.52
2019-02-27T22:29:21.927Z,14.52
2019-02-27T22:31:50.532Z,14.49
2019-02-27T22:34:18.881Z,14.50
2019-02-27T22:36:46.923Z,14.50
2019-02-27T22:39:15.126Z,14.48
2019-02-27T22:41:43.225Z,14.45
2019-02-27T22:44:11.441Z,14.44
2019-02-27T22:46:39.727Z,14.44
2019-02-27T22:49:10.619Z,14.41
2019-02-27T22:51:38.955Z,14.42
2019-02-27T22:54:07.014Z,14.42
2019-02-27T22:56:35.096Z,14.41
2019-02-27T22:59:03.858Z,14.42
2019-02-27T23:01:43.525Z,14.40
2019-02-27T23:04:11.648Z,14.36
2019-02-27T23:06:39.991Z,14.35
2019-02-27T23:09:09.843Z,14.33
2019-02-27T23:11:39.619Z,14.33
2019-02-27T23:14:08.434Z,14.32
2019-02-27T23:16:36.846Z,14.30
2019-02-27T23:19:05.078Z,14.31
2019-02-27T23:21:33.174Z,14.28
2019-02-27T23:24:01.214Z,14.28
2019-02-27T23:26:29.286Z,14.26
2019-02-27T23:28:57.456Z,14.24
2019-02-27T23:31:25.746Z,14.22
2019-02-27T23:33:54.187Z,14.21
2019-02-27T23:36:22.857Z,14.20
2019-02-27T23:38:51.166Z,14.20
2019-02-27T23:41:22.897Z,14.16
2019-02-27T23:43:49.078Z,14.12
2019-02-27T23:46:18.479Z,14.13
2019-02-27T23:48:46.915Z,14.10
2019-02-27T23:51:16.758Z,14.06
2019-02-27T23:53:45.232Z,14.02
2019-02-27T23:56:19.303Z,14.02
2019-02-27T23:58:43.130Z,14.00
